Time;durP1;ratioP1;P1;durP2;ratioP2;P2;SDS_P1;SDS_P2;PMS_P1;PMS_P2;Temp;Humidity;BMP_temperature;BMP_pressure;BME280_temperature;BME280_humidity;BME280_pressure;Samples;Min_cycle;Max_cycle;Signal;HPM_P1;HPM_P2
2022/05/28 00:01:14;;;;;;;10.85;2.10;;;12.00;99.90;;;;;;4939553;29;20095;-92
2022/05/28 00:03:41;;;;;;;11.05;2.42;;;12.00;99.90;;;;;;4932387;29;20057;-89
2022/05/28 00:06:12;;;;;;;10.52;2.13;;;11.90;99.90;;;;;;4933301;29;20059;-86
2022/05/28 00:08:38;;;;;;;;;;;11.80;99.90;;;;;;4943935;29;20069;-92
2022/05/28 00:11:18;;;;;;;9.13;1.65;;;11.50;99.90;;;;;;4945351;29;19938;-95
2022/05/28 00:13:45;;;;;;;10.23;1.98;;;11.40;99.90;;;;;;4940576;29;20075;-95
2022/05/28 00:16:12;;;;;;;8.65;1.80;;;11.30;99.90;;;;;;4963295;28;20388;-93
2022/05/28 00:18:40;;;;;;;10.43;1.92;;;11.30;99.90;;;;;;4947356;29;20122;-93
2022/05/28 00:21:10;;;;;;;10.98;2.30;;;11.30;99.90;;;;;;4949247;29;20114;-94
2022/05/28 00:23:37;;;;;;;10.25;2.08;;;11.10;99.90;;;;;;4937184;29;20044;-91
2022/05/28 00:26:04;;;;;;;8.45;1.60;;;11.10;99.90;;;;;;4920213;29;20099;-94
2022/05/28 00:28:30;;;;;;;12.43;2.30;;;11.10;99.90;;;;;;4939470;29;20098;-91
2022/05/28 00:30:56;;;;;;;11.50;2.58;;;11.10;99.90;;;;;;4944009;28;20139;-88
2022/05/28 00:33:22;;;;;;;12.30;2.13;;;11.10;99.90;;;;;;4942062;29;20130;-93
2022/05/28 00:35:49;;;;;;;10.60;2.30;;;11.00;99.90;;;;;;4940591;28;20118;-90
2022/05/28 00:38:15;;;;;;;11.35;2.00;;;11.10;99.90;;;;;;4940997;29;20047;-91
2022/05/28 00:40:49;;;;;;;8.55;1.98;;;11.00;99.90;;;;;;4945023;29;20044;-91
2022/05/28 00:43:15;;;;;;;11.80;2.33;;;10.90;99.90;;;;;;4944166;29;20062;-91
2022/05/28 00:45:42;;;;;;;7.53;2.00;;;10.90;99.90;;;;;;4944363;29;20401;-92
2022/05/28 00:48:09;;;;;;;9.23;2.33;;;10.90;99.90;;;;;;4901531;29;20063;-94
2022/05/28 00:50:36;;;;;;;11.95;2.95;;;10.90;99.90;;;;;;4942838;29;20087;-92
2022/05/28 00:53:03;;;;;;;9.55;2.63;;;10.80;99.90;;;;;;4960258;28;20048;-94
2022/05/28 00:55:33;;;;;;;9.57;2.15;;;10.80;99.90;;;;;;4928303;29;20056;-91
2022/05/28 00:58:01;;;;;;;9.82;2.30;;;10.80;99.90;;;;;;4924926;29;20066;-96
2022/05/28 01:00:27;;;;;;;8.25;2.00;;;10.80;99.90;;;;;;4943815;29;20130;-93
2022/05/28 01:03:12;;;;;;;9.02;2.78;;;10.80;99.90;;;;;;4926057;29;20459;-94
2022/05/28 01:05:54;;;;;;;10.23;2.00;;;10.80;99.90;;;;;;4929344;29;20054;-94
2022/05/28 01:08:37;;;;;;;12.15;2.97;;;10.60;99.90;;;;;;4934476;29;21584;-92
2022/05/28 01:11:23;;;;;;;9.43;1.80;;;10.70;99.90;;;;;;4947593;29;20047;-91
2022/05/28 01:14:17;;;;;;;9.55;2.00;;;10.60;99.90;;;;;;4948913;29;20047;-93
2022/05/28 01:16:54;;;;;;;9.60;1.92;;;10.50;99.90;;;;;;4956856;28;20069;-93
2022/05/28 01:19:47;;;;;;;11.02;1.92;;;10.40;99.90;;;;;;4941976;29;20354;-92
2022/05/28 01:22:17;;;;;;;8.25;1.70;;;10.40;99.90;;;;;;4945221;29;20040;-93
2022/05/28 01:25:36;;;;;;;9.52;2.25;;;10.30;99.90;;;;;;4942054;29;20091;-91
2022/05/28 01:28:06;;;;;;;7.88;2.00;;;10.30;99.90;;;;;;4910196;29;20149;-94
2022/05/28 01:30:31;;;;;;;9.45;2.10;;;10.30;99.90;;;;;;4917243;29;20063;-91
2022/05/28 01:33:00;;;;;;;10.20;1.92;;;10.20;99.90;;;;;;4904163;29;20052;-91
2022/05/28 01:35:29;;;;;;;7.65;2.10;;;10.20;99.90;;;;;;4901574;29;20219;-91
2022/05/28 01:37:57;;;;;;;9.60;2.10;;;10.10;99.90;;;;;;4880574;29;20040;-90
2022/05/28 01:40:24;;;;;;;11.07;2.35;;;10.10;99.90;;;;;;4886800;29;20150;-91
2022/05/28 01:42:54;;;;;;;11.65;2.65;;;10.10;99.90;;;;;;4900312;29;20049;-91
2022/05/28 01:45:23;;;;;;;10.25;2.15;;;10.10;99.90;;;;;;4876629;29;20060;-92
2022/05/28 01:47:51;;;;;;;10.13;2.20;;;10.00;99.90;;;;;;4896078;29;20127;-91
2022/05/28 01:50:18;;;;;;;7.93;2.20;;;10.00;99.90;;;;;;4902189;29;20143;-90
2022/05/28 01:52:45;;;;;;;9.93;2.17;;;10.00;99.90;;;;;;4872750;29;20052;-90
2022/05/28 01:55:14;;;;;;;10.30;2.17;;;10.00;99.90;;;;;;4874546;29;20054;-94
2022/05/28 01:57:40;;;;;;;11.23;2.20;;;10.00;99.90;;;;;;4892730;29;20668;-92
2022/05/28 02:00:06;;;;;;;11.30;2.13;;;9.90;99.90;;;;;;4948021;29;20088;-92
2022/05/28 02:02:32;;;;;;;8.40;2.00;;;9.90;99.90;;;;;;4930872;29;20074;-89
2022/05/28 02:04:59;;;;;;;10.88;3.20;;;9.90;99.90;;;;;;4948175;29;20043;-89
2022/05/28 02:07:25;;;;;;;8.05;2.35;;;9.90;99.90;;;;;;4941681;29;20075;-92
2022/05/28 02:10:03;;;;;;;9.15;1.77;;;9.80;99.90;;;;;;4947404;29;20552;-95
2022/05/28 02:12:33;;;;;;;12.20;2.33;;;9.90;99.90;;;;;;4936338;29;20143;-91
2022/05/28 02:15:05;;;;;;;11.40;2.42;;;9.80;99.90;;;;;;4936422;29;20043;-93
2022/05/28 02:17:36;;;;;;;10.00;2.38;;;9.80;99.90;;;;;;4952172;29;20075;-93
2022/05/28 02:20:16;;;;;;;10.60;2.50;;;9.80;99.90;;;;;;4962025;29;20059;-89
2022/05/28 02:23:06;;;;;;;10.70;2.53;;;9.80;99.90;;;;;;4955878;29;20054;-92
2022/05/28 02:25:56;;;;;;;11.23;2.30;;;9.70;99.90;;;;;;4948616;29;20035;-89
2022/05/28 02:28:23;;;;;;;11.82;2.50;;;9.70;99.90;;;;;;4923295;29;20047;-92
2022/05/28 02:31:02;;;;;;;13.15;2.15;;;9.70;99.90;;;;;;4926354;29;20050;-93
2022/05/28 02:33:28;;;;;;;12.23;2.13;;;9.70;99.90;;;;;;4934026;29;20381;-92
2022/05/28 02:35:54;;;;;;;9.18;1.92;;;9.70;99.90;;;;;;4940014;29;20051;-92
2022/05/28 02:38:20;;;;;;;11.35;2.25;;;9.70;99.90;;;;;;4917437;29;20063;-93
2022/05/28 02:40:46;;;;;;;11.20;2.30;;;9.70;99.90;;;;;;4920274;29;20051;-91
2022/05/28 02:43:12;;;;;;;9.95;2.17;;;9.70;99.90;;;;;;4940572;29;20118;-91
2022/05/28 02:45:39;;;;;;;10.27;2.45;;;9.70;99.90;;;;;;4939933;29;20078;-90
2022/05/28 02:48:05;;;;;;;11.55;2.15;;;9.70;99.90;;;;;;4935188;29;20135;-91
2022/05/28 02:50:30;;;;;;;9.02;2.28;;;9.70;99.90;;;;;;4923223;29;20191;-91
2022/05/28 02:53:04;;;;;;;10.82;2.30;;;9.60;99.90;;;;;;4950784;28;20060;-95
2022/05/28 02:55:30;;;;;;;8.48;1.88;;;9.60;99.90;;;;;;4934847;28;20047;-93
2022/05/28 02:57:55;;;;;;;10.23;2.78;;;9.60;99.90;;;;;;4945372;29;20066;-91
2022/05/28 03:00:21;;;;;;;11.75;2.25;;;9.60;99.90;;;;;;4926445;29;20178;-92
2022/05/28 03:02:48;;;;;;;10.90;2.45;;;9.60;99.90;;;;;;4921722;29;20135;-93
2022/05/28 03:05:16;;;;;;;8.82;2.28;;;9.60;99.90;;;;;;4945057;29;20054;-92
2022/05/28 03:07:41;;;;;;;10.85;2.28;;;9.60;99.90;;;;;;4919664;29;20051;-90
2022/05/28 03:10:08;;;;;;;13.02;2.83;;;9.60;99.90;;;;;;4938322;29;20222;-93
2022/05/28 03:12:33;;;;;;;11.15;2.45;;;9.60;99.90;;;;;;4921143;29;20098;-96
2022/05/28 03:14:59;;;;;;;11.48;2.30;;;9.50;99.90;;;;;;4917418;29;20146;-92
2022/05/28 03:17:24;;;;;;;10.50;2.05;;;9.50;99.90;;;;;;4944369;29;20043;-89
2022/05/28 03:19:50;;;;;;;9.13;2.47;;;9.50;99.90;;;;;;4948517;28;20595;-92
2022/05/28 03:22:16;;;;;;;11.35;2.53;;;9.50;99.90;;;;;;4929129;29;20099;-94
2022/05/28 03:24:42;;;;;;;10.65;2.80;;;9.60;99.90;;;;;;4929944;29;20044;-92
2022/05/28 03:27:07;;;;;;;11.57;2.70;;;9.60;99.90;;;;;;4944364;28;20082;-94
2022/05/28 03:29:33;;;;;;;11.52;2.25;;;9.60;99.90;;;;;;4926959;29;20508;-90
2022/05/28 03:31:59;;;;;;;11.73;2.47;;;9.60;99.90;;;;;;4910651;29;20536;-94
2022/05/28 03:34:24;;;;;;;10.32;2.78;;;9.60;99.90;;;;;;4941201;29;20043;-95
2022/05/28 03:36:50;;;;;;;12.02;2.60;;;9.60;99.90;;;;;;4928899;29;20394;-95
2022/05/28 03:39:21;;;;;;;13.57;2.33;;;9.50;99.90;;;;;;4931361;29;20058;-94
2022/05/28 03:41:47;;;;;;;11.57;2.47;;;9.50;99.90;;;;;;4976189;28;20050;-96
2022/05/28 03:44:13;;;;;;;11.30;2.65;;;9.50;99.90;;;;;;4946969;29;20040;-92
2022/05/28 03:46:42;;;;;;;10.57;1.92;;;9.50;99.90;;;;;;4928331;29;20078;-94
2022/05/28 03:49:21;;;;;;;9.85;2.47;;;9.50;99.90;;;;;;4944758;29;20055;-91
2022/05/28 03:51:47;;;;;;;12.27;2.58;;;9.50;99.90;;;;;;4943241;29;20095;-94
2022/05/28 03:54:19;;;;;;;14.38;2.50;;;9.50;99.90;;;;;;4949811;29;20043;-95
2022/05/28 03:56:46;;;;;;;10.45;2.30;;;9.50;99.90;;;;;;4939781;29;20115;-94
2022/05/28 03:59:12;;;;;;;10.65;2.35;;;9.50;99.90;;;;;;4966747;28;21664;-93
2022/05/28 04:01:38;;;;;;;9.73;2.50;;;9.50;99.90;;;;;;4942164;29;20071;-95
2022/05/28 04:04:18;;;;;;;9.32;2.30;;;9.50;99.90;;;;;;4942561;29;20035;-96
2022/05/28 04:06:44;;;;;;;12.48;2.60;;;9.50;99.90;;;;;;4943219;29;20051;-95
2022/05/28 04:09:20;;;;;;;10.93;2.92;;;9.50;99.90;;;;;;4944249;28;20039;-93
2022/05/28 04:11:46;;;;;;;11.68;2.40;;;9.50;99.90;;;;;;4933110;29;20090;-94
2022/05/28 04:14:11;;;;;;;11.07;2.45;;;9.50;99.90;;;;;;4948415;29;20039;-95
2022/05/28 04:16:40;;;;;;;9.88;2.47;;;9.50;99.90;;;;;;4945404;29;20051;-95
2022/05/28 04:19:06;;;;;;;11.90;2.42;;;9.60;99.90;;;;;;4953583;29;20107;-94
2022/05/28 04:21:32;;;;;;;12.80;2.70;;;9.60;99.90;;;;;;4945110;29;20447;-96
2022/05/28 04:24:12;;;;;;;11.70;2.88;;;9.70;99.90;;;;;;4958327;28;20035;-93
2022/05/28 04:26:38;;;;;;;13.13;4.57;;;9.70;99.90;;;;;;4952210;29;20063;-92
2022/05/28 04:29:04;;;;;;;10.75;2.72;;;9.90;99.90;;;;;;4947666;28;20039;-92
2022/05/28 04:31:30;;;;;;;12.70;2.58;;;9.90;99.90;;;;;;4946121;29;20043;-91
2022/05/28 04:33:55;;;;;;;12.65;2.92;;;9.90;99.90;;;;;;4986309;28;20142;-96
2022/05/28 04:36:27;;;;;;;11.27;2.85;;;9.90;99.90;;;;;;4942577;29;20051;-96
2022/05/28 04:39:03;;;;;;;11.10;2.35;;;10.00;99.90;;;;;;4930514;29;20079;-93
2022/05/28 04:41:29;;;;;;;12.20;3.00;;;10.10;99.90;;;;;;4965755;28;20493;-94
2022/05/28 04:43:54;;;;;;;12.05;3.10;;;10.10;99.90;;;;;;4946080;29;20187;-95
2022/05/28 04:46:23;;;;;;;12.77;3.40;;;10.30;99.90;;;;;;4947738;29;20047;-96
2022/05/28 04:48:51;;;;;;;12.93;2.83;;;10.20;99.90;;;;;;4945928;28;20413;-95
2022/05/28 04:51:17;;;;;;;10.48;2.42;;;10.40;99.90;;;;;;4951647;29;20063;-96
2022/05/28 04:53:56;;;;;;;11.57;2.75;;;10.40;99.90;;;;;;4938434;29;20048;-96
2022/05/28 04:56:22;;;;;;;13.20;3.10;;;10.50;99.90;;;;;;4924197;29;20057;-90
2022/05/28 04:58:50;;;;;;;10.70;2.70;;;10.60;99.90;;;;;;4935498;29;20114;-92
2022/05/28 05:01:19;;;;;;;13.52;3.08;;;10.60;99.90;;;;;;4941021;29;20115;-92
2022/05/28 05:03:45;;;;;;;12.23;2.67;;;10.70;99.90;;;;;;4949120;29;20039;-92
2022/05/28 05:06:28;;;;;;;12.27;3.25;;;10.70;99.90;;;;;;4941056;29;20035;-94
2022/05/28 05:08:53;;;;;;;11.18;2.60;;;10.80;99.90;;;;;;4938642;29;20326;-94
2022/05/28 05:11:23;;;;;;;10.40;2.63;;;10.80;99.90;;;;;;4955282;28;20064;-95
2022/05/28 05:13:49;;;;;;;14.80;3.33;;;10.80;99.90;;;;;;4942672;29;20047;-93
2022/05/28 05:16:17;;;;;;;12.40;2.50;;;10.90;99.90;;;;;;4936494;29;20318;-95
2022/05/28 05:18:48;;;;;;;9.85;2.50;;;11.00;99.90;;;;;;4948964;28;20430;-95
2022/05/28 05:21:14;;;;;;;;;;;10.90;99.90;;;;;;4948141;29;20036;-96
2022/05/28 05:23:46;;;;;;;11.05;2.83;;;10.80;99.90;;;;;;4932715;29;19938;-95
2022/05/28 05:26:18;;;;;;;12.63;3.05;;;10.90;99.90;;;;;;4966305;28;20043;-94
2022/05/28 05:28:44;;;;;;;13.10;2.90;;;10.90;99.90;;;;;;4954167;29;20118;-95
2022/05/28 05:31:09;;;;;;;13.57;3.20;;;11.00;99.90;;;;;;4958753;29;20071;-95
2022/05/28 05:33:38;;;;;;;15.00;3.22;;;11.00;99.90;;;;;;4946182;29;20481;-94
2022/05/28 05:36:04;;;;;;;12.30;3.10;;;11.00;99.90;;;;;;4946883;29;20043;-94
2022/05/28 05:38:30;;;;;;;14.18;2.78;;;11.10;99.90;;;;;;4935411;29;20044;-94
2022/05/28 05:40:55;;;;;;;12.35;2.70;;;11.10;99.90;;;;;;4939372;29;20027;-95
2022/05/28 05:43:21;;;;;;;11.88;2.78;;;11.10;99.90;;;;;;4944609;29;20094;-94
2022/05/28 05:45:57;;;;;;;13.48;3.15;;;11.10;99.90;;;;;;4930187;29;20079;-96
2022/05/28 05:48:23;;;;;;;12.15;3.10;;;11.20;99.90;;;;;;4941397;29;20062;-95
2022/05/28 05:50:49;;;;;;;10.77;2.53;;;11.20;99.90;;;;;;4951383;29;20051;-95
2022/05/28 05:53:15;;;;;;;14.07;3.20;;;11.20;99.90;;;;;;4930542;29;20047;-95
2022/05/28 05:55:41;;;;;;;13.15;2.85;;;11.30;99.90;;;;;;4920858;29;20398;-93
2022/05/28 05:58:08;;;;;;;13.63;3.03;;;11.30;99.90;;;;;;4950764;28;20047;-90
2022/05/28 06:00:35;;;;;;;14.55;3.25;;;11.30;99.90;;;;;;4930452;29;20397;-93
2022/05/28 06:03:01;;;;;;;11.15;3.20;;;11.30;99.90;;;;;;4925297;29;20059;-95
2022/05/28 06:05:27;;;;;;;14.70;3.13;;;11.40;99.90;;;;;;4949163;29;20081;-93
2022/05/28 06:07:52;;;;;;;12.00;2.70;;;11.50;99.90;;;;;;4954158;29;20197;-93
2022/05/28 06:10:19;;;;;;;13.52;2.92;;;11.60;99.90;;;;;;4943989;28;20063;-95
2022/05/28 06:12:44;;;;;;;15.43;3.13;;;11.60;99.90;;;;;;4942756;29;20485;-95
2022/05/28 06:15:12;;;;;;;12.10;2.95;;;11.70;99.90;;;;;;4926192;29;20046;-95
2022/05/28 06:17:38;;;;;;;14.38;3.53;;;11.60;99.90;;;;;;4939623;29;20055;-92
2022/05/28 06:20:06;;;;;;;10.73;2.60;;;11.80;99.90;;;;;;4936495;29;20039;-95
2022/05/28 06:22:32;;;;;;;11.95;3.10;;;11.80;99.90;;;;;;4944944;29;20048;-92
2022/05/28 06:25:01;;;;;;;9.02;2.85;;;11.80;99.90;;;;;;4946425;29;20091;-95
2022/05/28 06:27:27;;;;;;;10.35;2.42;;;11.80;99.90;;;;;;4924594;29;20040;-90
2022/05/28 06:29:53;;;;;;;9.43;2.13;;;11.80;99.90;;;;;;4950524;28;20448;-96
2022/05/28 06:32:19;;;;;;;8.10;1.98;;;11.90;99.90;;;;;;4946690;29;20065;-93
2022/05/28 06:34:44;;;;;;;9.48;2.22;;;11.90;99.90;;;;;;4942493;29;20040;-95
2022/05/28 06:37:13;;;;;;;8.60;1.90;;;11.90;99.90;;;;;;4948198;29;20105;-94
2022/05/28 06:39:39;;;;;;;7.25;1.90;;;11.90;99.90;;;;;;4944425;28;20043;-92
2022/05/28 06:42:05;;;;;;;7.95;2.20;;;12.00;99.90;;;;;;4962080;29;20043;-95
2022/05/28 06:44:31;;;;;;;8.68;2.40;;;12.10;99.90;;;;;;4931629;29;20105;-90
2022/05/28 06:46:57;;;;;;;10.98;2.78;;;12.20;99.90;;;;;;4937852;29;20107;-93
2022/05/28 06:49:22;;;;;;;9.23;2.47;;;12.20;99.90;;;;;;4941763;29;20039;-91
2022/05/28 06:51:50;;;;;;;9.40;2.38;;;12.30;99.90;;;;;;4935100;29;20044;-94
2022/05/28 06:54:16;;;;;;;10.38;2.53;;;12.30;99.90;;;;;;4944988;29;20131;-93
2022/05/28 06:56:42;;;;;;;12.00;2.83;;;12.30;99.90;;;;;;4924940;29;20099;-92
2022/05/28 06:59:08;;;;;;;11.68;2.50;;;12.40;99.90;;;;;;4944386;29;20043;-91
2022/05/28 07:01:33;;;;;;;10.93;2.85;;;12.40;99.90;;;;;;4941982;29;20079;-92
2022/05/28 07:03:59;;;;;;;10.35;2.53;;;12.70;99.90;;;;;;4949701;29;20196;-93
2022/05/28 07:06:27;;;;;;;13.10;2.97;;;12.60;99.90;;;;;;4952196;29;20047;-92
2022/05/28 07:08:53;;;;;;;10.50;2.70;;;12.70;99.90;;;;;;4943223;29;20054;-90
2022/05/28 07:11:18;;;;;;;13.43;3.33;;;12.60;99.90;;;;;;4952580;29;20056;-93
2022/05/28 07:13:44;;;;;;;12.60;3.20;;;12.50;99.90;;;;;;4936146;29;20054;-90
2022/05/28 07:16:11;;;;;;;13.35;3.20;;;12.50;99.90;;;;;;4952585;29;20047;-90
2022/05/28 07:18:38;;;;;;;9.95;2.40;;;12.40;99.90;;;;;;4941251;29;20075;-90
2022/05/28 07:21:05;;;;;;;8.95;2.28;;;12.20;99.90;;;;;;4929458;29;20052;-91
2022/05/28 07:23:33;;;;;;;9.43;2.67;;;12.00;99.90;;;;;;4937825;29;20103;-95
2022/05/28 07:26:15;;;;;;;9.80;2.45;;;11.90;99.90;;;;;;4944630;29;20119;-90
2022/05/28 07:28:42;;;;;;;11.23;2.60;;;11.80;99.90;;;;;;4927885;29;20044;-93
2022/05/28 07:31:11;;;;;;;10.25;2.40;;;11.60;99.90;;;;;;4937065;28;20062;-91
2022/05/28 07:33:40;;;;;;;11.02;2.97;;;11.60;99.90;;;;;;4938257;29;20039;-87
2022/05/28 07:36:08;;;;;;;10.10;2.97;;;11.60;99.90;;;;;;4932946;29;20143;-92
2022/05/28 07:38:35;;;;;;;9.68;2.88;;;11.50;99.90;;;;;;4929406;29;20090;-90
2022/05/28 07:41:07;;;;;;;9.85;2.70;;;11.40;99.90;;;;;;4949610;28;20401;-87
2022/05/28 07:43:34;;;;;;;10.40;2.67;;;11.40;99.90;;;;;;4926072;29;20122;-89
2022/05/28 07:46:00;;;;;;;11.10;2.63;;;11.30;99.90;;;;;;4943600;29;20175;-90
2022/05/28 07:48:25;;;;;;;7.45;2.58;;;11.40;99.90;;;;;;4924206;29;20130;-92
2022/05/28 07:50:51;;;;;;;11.68;2.55;;;11.30;99.90;;;;;;4961101;28;20055;-90
2022/05/28 07:53:17;;;;;;;9.48;2.60;;;11.30;99.90;;;;;;4936843;29;20039;-92
2022/05/28 07:55:43;;;;;;;8.80;2.60;;;11.20;99.90;;;;;;4939457;29;20102;-94
2022/05/28 07:58:12;;;;;;;10.48;2.83;;;11.30;99.90;;;;;;4945158;29;20488;-93
2022/05/28 08:00:44;;;;;;;10.57;2.85;;;11.50;99.90;;;;;;4941996;29;20035;-93
2022/05/28 08:03:10;;;;;;;10.93;2.88;;;11.60;99.90;;;;;;4930468;29;20094;-94
2022/05/28 08:05:37;;;;;;;10.07;2.85;;;11.80;99.90;;;;;;4934609;29;20440;-91
2022/05/28 08:08:03;;;;;;;9.10;2.55;;;11.70;99.90;;;;;;4915229;29;20048;-87
2022/05/28 08:10:29;;;;;;;11.65;2.60;;;11.80;99.90;;;;;;4945482;28;20114;-89
2022/05/28 08:13:03;;;;;;;9.70;2.80;;;11.80;99.90;;;;;;4934862;29;20123;-89
2022/05/28 08:15:29;;;;;;;12.20;3.05;;;11.90;99.90;;;;;;4946954;29;20074;-89
2022/05/28 08:17:55;;;;;;;14.55;4.13;;;12.00;99.90;;;;;;4931840;29;20609;-88
2022/05/28 08:23:08;;;;;;;16.50;4.72;;;12.10;99.90;;;;;;4929684;29;20117;-88
2022/05/28 08:23:09;;;;;;;15.65;3.20;;;12.30;99.90;;;;;;4933322;29;20138;-90
2022/05/28 08:25:34;;;;;;;13.73;3.63;;;12.50;99.90;;;;;;4938034;29;20183;-91
2022/05/28 08:28:00;;;;;;;14.00;3.53;;;12.80;99.90;;;;;;4931206;29;20138;-89
2022/05/28 08:30:26;;;;;;;15.90;3.95;;;13.00;99.90;;;;;;4933232;29;20122;-91
2022/05/28 08:32:51;;;;;;;13.57;3.60;;;13.00;99.90;;;;;;4915747;29;20076;-89
2022/05/28 08:35:17;;;;;;;14.82;3.78;;;13.00;99.90;;;;;;4932472;29;20044;-92
2022/05/28 08:37:43;;;;;;;12.13;3.25;;;13.10;99.90;;;;;;4938245;29;20043;-88
2022/05/28 08:40:12;;;;;;;13.10;3.60;;;13.10;99.90;;;;;;4949629;28;20054;-91
2022/05/28 08:42:39;;;;;;;12.68;3.28;;;13.10;99.90;;;;;;4935430;29;20100;-94
2022/05/28 08:45:06;;;;;;;12.85;3.28;;;13.10;99.90;;;;;;4917861;29;20499;-90
2022/05/28 08:47:35;;;;;;;14.77;3.60;;;13.20;99.90;;;;;;4920705;29;20078;-96
2022/05/28 08:50:02;;;;;;;12.43;3.50;;;13.30;99.90;;;;;;4935724;29;20075;-93
2022/05/28 08:52:48;;;;;;;14.20;3.80;;;13.30;99.90;;;;;;4953482;28;20043;-92
2022/05/28 08:55:22;;;;;;;12.45;3.28;;;13.40;99.90;;;;;;4941297;29;20050;-96
2022/05/28 08:58:12;;;;;;;11.75;2.80;;;13.40;99.90;;;;;;4906497;29;20072;-96
2022/05/28 09:00:45;;;;;;;14.48;3.25;;;13.50;99.90;;;;;;4920932;29;20063;-93
2022/05/28 09:03:24;;;;;;;12.85;3.13;;;13.50;99.90;;;;;;4909213;29;20059;-94
2022/05/28 09:05:58;;;;;;;10.32;3.00;;;13.50;99.90;;;;;;4941791;29;20036;-92
2022/05/28 09:08:40;;;;;;;12.05;3.47;;;13.50;99.90;;;;;;4943499;29;20136;-95
2022/05/28 09:11:11;;;;;;;12.88;3.35;;;13.50;99.90;;;;;;4941794;29;20063;-94
2022/05/28 09:13:52;;;;;;;16.92;3.33;;;13.50;99.90;;;;;;4954066;29;20036;-94
2022/05/28 09:16:24;;;;;;;14.57;3.50;;;13.50;99.90;;;;;;4957090;29;20036;-90
2022/05/28 09:18:52;;;;;;;12.57;3.42;;;13.60;99.90;;;;;;4934879;29;20059;-89
2022/05/28 09:21:18;;;;;;;14.18;3.35;;;13.80;99.90;;;;;;4941008;29;20035;-92
2022/05/28 09:24:05;;;;;;;16.08;3.40;;;13.90;99.90;;;;;;4959526;28;20054;-90
2022/05/28 09:26:44;;;;;;;13.82;3.05;;;13.90;99.90;;;;;;4928018;29;20052;-92
2022/05/28 09:29:41;;;;;;;13.32;3.30;;;13.70;99.90;;;;;;4921302;29;20044;-93
2022/05/28 09:32:31;;;;;;;13.27;3.20;;;13.60;99.90;;;;;;4919365;29;20544;-94
2022/05/28 09:35:14;;;;;;;10.98;2.78;;;13.60;99.90;;;;;;4922114;29;20127;-93
2022/05/28 09:38:00;;;;;;;12.20;3.05;;;13.60;99.90;;;;;;4939603;29;20090;-92
2022/05/28 09:40:34;;;;;;;11.30;2.97;;;13.80;99.90;;;;;;4921107;29;20064;-91
2022/05/28 09:43:08;;;;;;;11.80;2.90;;;14.00;99.90;;;;;;4937913;29;20405;-88
2022/05/28 09:46:03;;;;;;;12.35;3.22;;;14.20;99.90;;;;;;4917979;29;20044;-90
2022/05/28 09:48:29;;;;;;;12.30;3.33;;;14.30;99.90;;;;;;4923806;29;20106;-94
2022/05/28 09:50:55;;;;;;;10.85;2.72;;;14.40;99.90;;;;;;4968475;28;20366;-93
2022/05/28 09:56:27;;;;;;;12.38;2.88;;;14.50;99.90;;;;;;4938110;29;20055;-93
2022/05/28 09:58:53;;;;;;;12.75;2.65;;;14.40;99.90;;;;;;4954041;29;20125;-92
2022/05/28 10:01:24;;;;;;;11.00;2.47;;;14.30;99.90;;;;;;4967374;28;20048;-95
2022/05/28 10:06:47;;;;;;;10.27;2.83;;;14.20;99.90;;;;;;4937780;29;20181;-96
2022/05/28 10:09:35;;;;;;;11.95;2.30;;;14.20;99.90;;;;;;4920212;29;20040;-92
2022/05/28 10:12:12;;;;;;;11.52;2.80;;;14.00;99.90;;;;;;4936803;29;20064;-93
2022/05/28 10:14:38;;;;;;;11.75;3.03;;;13.90;99.90;;;;;;4935663;29;20139;-93
2022/05/28 10:17:04;;;;;;;10.77;3.30;;;13.70;99.90;;;;;;4932166;29;20123;-88
2022/05/28 10:19:43;;;;;;;11.65;3.17;;;13.70;99.90;;;;;;4920929;29;20358;-93
2022/05/28 10:22:20;;;;;;;15.60;3.10;;;13.60;99.90;;;;;;4955136;29;20052;-91
2022/05/28 10:24:54;;;;;;;15.63;3.63;;;13.50;99.90;;;;;;4943248;29;20040;-96
2022/05/28 10:27:48;;;;;;;12.80;3.35;;;13.60;99.90;;;;;;4937748;29;20054;-93
2022/05/28 10:30:32;;;;;;;14.13;3.25;;;13.70;99.90;;;;;;4916461;29;20143;-92
2022/05/28 10:33:02;;;;;;;12.43;2.80;;;14.00;99.90;;;;;;4931066;29;20136;-93
2022/05/28 10:35:31;;;;;;;11.25;2.88;;;14.20;99.90;;;;;;4932530;29;20122;-95
2022/05/28 10:38:27;;;;;;;13.77;3.22;;;14.30;99.90;;;;;;4918274;29;20055;-95
2022/05/28 10:41:01;;;;;;;10.57;2.78;;;14.40;99.90;;;;;;4924814;29;20055;-93
2022/05/28 10:43:33;;;;;;;11.10;3.05;;;14.40;99.90;;;;;;4954163;29;20043;-91
2022/05/28 10:46:13;;;;;;;;;;;14.30;99.90;;;;;;4976060;28;20048;-89
2022/05/28 10:49:06;;;;;;;13.00;3.03;;;14.00;99.90;;;;;;4959541;29;19907;-94
2022/05/28 10:51:43;;;;;;;12.05;2.90;;;13.90;99.90;;;;;;4938813;29;20047;-95
2022/05/28 10:54:59;;;;;;;11.20;2.65;;;13.80;99.90;;;;;;4937896;29;20119;-95
2022/05/28 10:57:52;;;;;;;11.32;2.85;;;13.70;99.90;;;;;;4940109;29;20048;-94
2022/05/28 11:00:25;;;;;;;11.90;2.67;;;13.70;99.90;;;;;;4933284;29;20036;-96
2022/05/28 11:03:22;;;;;;;10.35;2.70;;;13.70;99.90;;;;;;4948358;29;20054;-94
2022/05/28 11:06:15;;;;;;;9.45;2.90;;;13.80;99.90;;;;;;4937787;29;20492;-94
2022/05/28 11:09:01;;;;;;;10.05;2.65;;;13.80;99.90;;;;;;4943587;29;20059;-92
2022/05/28 11:11:57;;;;;;;9.82;2.33;;;13.80;99.90;;;;;;4923244;29;20059;-93
2022/05/28 11:14:43;;;;;;;10.63;2.47;;;13.90;99.90;;;;;;4956552;29;20051;-96
2022/05/28 11:17:25;;;;;;;12.73;2.80;;;14.00;99.90;;;;;;4904222;29;20137;-94
2022/05/28 11:20:17;;;;;;;10.57;2.33;;;14.20;99.90;;;;;;4942338;29;20079;-93
2022/05/28 11:23:02;;;;;;;13.02;2.88;;;14.20;99.90;;;;;;4926147;29;20047;-94
2022/05/28 11:26:13;;;;;;;11.15;2.50;;;14.20;99.90;;;;;;4943278;29;20075;-91
2022/05/28 11:28:49;;;;;;;12.88;3.05;;;14.20;99.90;;;;;;4921706;29;20501;-92
2022/05/28 11:31:41;;;;;;;11.25;2.90;;;14.10;99.90;;;;;;4935302;29;20434;-92
2022/05/28 11:34:25;;;;;;;13.05;2.72;;;14.20;99.90;;;;;;4943332;29;20054;-94
2022/05/28 11:37:08;;;;;;;11.02;2.95;;;14.20;99.90;;;;;;4929290;29;20102;-93
2022/05/28 11:39:50;;;;;;;9.52;2.20;;;14.30;99.90;;;;;;4967819;28;20071;-92
2022/05/28 11:42:38;;;;;;;7.10;1.95;;;14.20;99.90;;;;;;4929303;29;20099;-90
2022/05/28 11:45:10;;;;;;;12.30;2.25;;;14.30;99.90;;;;;;4936711;29;20576;-93
2022/05/28 11:48:06;;;;;;;8.77;2.40;;;14.40;99.90;;;;;;4965926;23;20141;-95
2022/05/28 11:53:47;;;;;;;13.52;2.53;;;14.60;99.90;;;;;;4961037;29;20063;-92
2022/05/28 11:56:17;;;;;;;9.85;2.50;;;14.70;99.90;;;;;;4938876;29;20043;-94
2022/05/28 11:58:48;;;;;;;10.93;2.20;;;14.80;99.90;;;;;;4953638;29;20039;-96
2022/05/28 12:01:22;;;;;;;10.25;2.33;;;14.90;99.90;;;;;;4953850;29;20039;-93
2022/05/28 12:03:48;;;;;;;9.45;2.30;;;15.00;99.90;;;;;;4953693;29;20049;-95
2022/05/28 12:06:24;;;;;;;9.90;2.20;;;15.10;99.90;;;;;;4931156;29;20040;-95
2022/05/28 12:09:04;;;;;;;10.32;2.55;;;15.10;99.90;;;;;;4951731;29;20043;-92
2022/05/28 12:11:40;;;;;;;12.75;2.58;;;15.00;99.90;;;;;;4930210;29;20054;-95
2022/05/28 12:14:20;;;;;;;10.68;2.33;;;14.90;99.90;;;;;;4941571;29;20054;-95
2022/05/28 12:16:58;;;;;;;11.93;2.60;;;14.80;99.90;;;;;;4958112;29;20128;-95
2022/05/28 12:19:25;;;;;;;10.95;2.88;;;14.90;99.90;;;;;;4958756;29;20080;-93
2022/05/28 12:21:50;;;;;;;11.88;3.05;;;14.80;99.90;;;;;;4952380;28;20031;-95
2022/05/28 12:24:19;;;;;;;13.77;2.70;;;14.90;99.90;;;;;;4938070;29;20046;-95
2022/05/28 12:32:16;;;;;;;11.20;2.95;;;14.90;99.90;;;;;;4955894;29;20043;-94
2022/05/28 12:35:07;;;;;;;10.07;2.40;;;15.00;99.90;;;;;;4953162;29;20051;-91
2022/05/28 12:37:35;;;;;;;11.30;3.55;;;15.00;99.90;;;;;;4962164;29;20066;-94
2022/05/28 12:40:29;;;;;;;13.18;3.25;;;15.20;99.90;;;;;;4957951;29;20043;-92
2022/05/28 12:42:58;;;;;;;9.68;1.70;;;15.50;99.90;;;;;;4943690;29;20070;-95
2022/05/28 12:45:23;;;;;;;9.73;2.38;;;15.50;99.90;;;;;;4953305;29;20059;-94
2022/05/28 12:47:49;;;;;;;9.38;2.33;;;15.40;99.90;;;;;;4938763;29;20111;-93
2022/05/28 12:50:39;;;;;;;9.45;2.28;;;15.40;99.90;;;;;;4940473;29;20044;-95
2022/05/28 12:53:14;;;;;;;10.15;2.30;;;15.50;99.90;;;;;;4933212;29;20138;-96
2022/05/28 12:55:43;;;;;;;8.65;1.90;;;15.60;99.90;;;;;;4954887;29;20113;-93
2022/05/28 12:58:24;;;;;;;9.60;2.15;;;15.80;99.90;;;;;;4965174;29;20103;-94
2022/05/28 13:00:54;;;;;;;7.82;2.05;;;15.70;99.90;;;;;;4958540;29;20047;-95
2022/05/28 13:03:22;;;;;;;9.30;1.95;;;15.70;99.90;;;;;;4967654;28;20030;-94
2022/05/28 13:05:52;;;;;;;8.20;2.20;;;15.60;99.90;;;;;;4956174;28;20117;-96
2022/05/28 13:08:27;;;;;;;8.63;2.13;;;15.70;99.90;;;;;;4962905;28;20057;-94
2022/05/28 13:11:05;;;;;;;9.05;2.28;;;15.50;99.90;;;;;;4964775;28;20042;-94
2022/05/28 13:13:44;;;;;;;10.23;2.38;;;15.30;99.90;;;;;;4952477;29;20074;-95
2022/05/28 13:16:30;;;;;;;11.30;2.38;;;15.40;99.90;;;;;;4929450;29;20043;-90
2022/05/28 13:19:32;;;;;;;7.90;2.17;;;15.30;99.90;;;;;;4952154;29;20122;-90
2022/05/28 13:22:08;;;;;;;10.45;2.15;;;15.10;99.90;;;;;;4962600;29;20071;-94